Flight Track Log - Related Links

Times and Time Zones

All times are in EDT time to prevent confusion due to time zone crossing. See the FLG3713 flight status page for this flight to view local times or setup timezone preferences in your user account.

Time Position Orientation Groundspeed Altitude Reporting Facility
EDT Latitude Longitude Course Direction KTS MPH feet Rate Location/Type
Sun 08:26:59 PM 39.0500 -84.6833 297° West 161 185 1,500  Level Cincinnati TRACON
Sun 08:27:41 PM 39.0500 -84.7333 270° West 169 194 3,000 2,056 Climbing Cincinnati TRACON
Sun 08:28:47 PM 39.0500 -84.8167 270° West 249 287 5,200 2,667 Climbing Cincinnati TRACON
Sun 08:30:05 PM 39.0458 -84.9433 268° West 261 300 9,400 2,829 Climbing Indianapolis Center
Sun 08:31:00 PM 39.0499 -84.9914 311° West  Level FlightAware Approximate
Sun 08:31:07 PM 39.0744 -85.0350 292° West 274 315 11,800  Level Indianapolis Center
Sun 08:32:00 PM 39.0993 -85.0984 297° West  Level FlightAware Approximate
Sun 08:32:08 PM 39.1103 -85.1311 296° West 295 339 13,800  Level Indianapolis Center
Sun 08:33:10 PM 39.1469 -85.2306 295° West 307 353 15,800 1,902 Climbing Indianapolis Center
Sun 08:34:11 PM 39.1847 -85.3322 296° West 315 362 17,700 1,610 Climbing Indianapolis Center
Sun 08:35:13 PM 39.2275 -85.4328 299° West 320 368 19,100 1,403 Climbing Indianapolis Center
Sun 08:36:15 PM 39.2867 -85.5228 310° West 327 376 20,600 1,610 Climbing Indianapolis Center
Sun 08:37:16 PM 39.3697 -85.6158 319° Northwest 336 387 22,400 1,659 Climbing Indianapolis Center
Sun 08:38:18 PM 39.4475 -85.6781 328° Northwest 332 382 24,000 1,317 Climbing Indianapolis Center
Sun 08:39:19 PM 39.5256 -85.7389 329° Northwest 329 379 25,100 976 Climbing Indianapolis Center
Sun 08:40:21 PM 39.6056 -85.8006 329° Northwest 334 384 26,000 439 Climbing Indianapolis Center
Sun 08:41:22 PM 39.6881 -85.8653 329° Northwest 348 400 26,000  Level Indianapolis Center
Sun 08:42:24 PM 39.7772 -85.9361 329° Northwest 377 434 26,000  Level Indianapolis Center
Sun 08:43:25 PM 39.8878 -86.0239 329° Northwest 393 452 26,000  Level Indianapolis Center
Sun 08:44:27 PM 39.9822 -86.0983 329° Northwest 402 463 26,000  Level Indianapolis Center
Sun 08:45:28 PM 40.0794 -86.1750 329° Northwest 410 472 26,000  Level Indianapolis Center
Sun 08:46:30 PM 40.1764 -86.2542 328° Northwest 413 475 26,000  Level Indianapolis Center
Sun 08:47:33 PM 40.2753 -86.3325 329° Northwest 418 481 26,000  Level Chicago Center
Sun 08:48:35 PM 40.3933 -86.4278 328° Northwest 417 480 26,000  Level Chicago Center
Sun 08:49:37 PM 40.4925 -86.5078 328° Northwest 420 483 26,000  Level Chicago Center
Sun 08:50:39 PM 40.5911 -86.5881 328° Northwest 418 481 26,000  Level Chicago Center
Sun 08:51:41 PM 40.6903 -86.6686 328° Northwest 419 482 26,000  Level Chicago Center
Sun 08:52:43 PM 40.8025 -86.7597 328° Northwest 417 480 26,000  Level Chicago Center
Sun 08:53:45 PM 40.9008 -86.8400 328° Northwest 414 476 26,000  Level Chicago Center
Sun 08:54:47 PM 41.0008 -86.9231 328° Northwest 420 483 26,000  Level Chicago Center
Sun 08:55:48 PM 41.0986 -87.0033 328° Northwest 416 479 26,000  Level Chicago Center
Sun 08:56:50 PM 41.1958 -87.0839 328° Northwest 413 475 26,000  Level Chicago Center
Sun 08:57:52 PM 41.2953 -87.1678 328° Northwest 419 482 26,000  Level Chicago Center
Sun 08:58:54 PM 41.3953 -87.2483 329° Northwest 418 481 26,000  Level Chicago Center
Sun 08:59:56 PM 41.5128 -87.3483 328° Northwest 417 480 26,000  Level Chicago Center
Sun 09:00:58 PM 41.6083 -87.4297 328° Northwest 409 471 26,000  Level Chicago Center
Sun 09:02:00 PM 41.7075 -87.5136 328° Northwest 420 483 26,000  Level Chicago Center
Sun 09:03:01 PM 41.8122 -87.6031 328° Northwest 421 484 26,000  Level Chicago Center
Sun 09:04:03 PM 41.9036 -87.7003 322° Northwest 420 483 26,000 -435 Level Chicago Center
Sun 09:05:05 PM 41.9897 -87.8081 317° Northwest 422 486 25,100 -919 Descending Chicago Center
Sun 09:06:07 PM 42.0758 -87.9203 316° Northwest 428 493 24,100 -532 Descending Chicago Center
Sun 09:07:09 PM 42.1608 -88.0322 316° Northwest 427 491 24,000 -48 Descending Chicago Center
Sun 09:08:11 PM 42.2608 -88.1608 316° Northwest 426 490 24,000  Level Chicago Center
Sun 09:09:13 PM 42.3469 -88.2733 316° Northwest 428 493 24,000 -927 Level Chicago Center
Sun 09:10:14 PM 42.4333 -88.3875 316° Northwest 434 499 22,100 -2,439 Descending Chicago Center
Sun 09:11:16 PM 42.5119 -88.4919 316° Northwest 404 465 19,000 -2,903 Descending Chicago Center
Sun 09:12:18 PM 42.5825 -88.5858 316° Northwest 361 415 16,100 -2,516 Descending Chicago Center
Sun 09:13:20 PM 42.6494 -88.6764 315° West 342 394 13,800 -2,274 Descending Chicago Center
Sun 09:14:22 PM 42.7328 -88.7883 315° West 359 413 11,400 -1,839 Descending Chicago Center
Sun 09:15:24 PM 42.8031 -88.8797 316° Northwest 350 403 10,000 -1,113 Descending Chicago Center
Sun 09:16:26 PM 42.8567 -88.9533 315° West 282 325 9,100 -435 Descending Chicago Center
Sun 09:17:28 PM 42.9117 -89.0278 315° West 276 318 9,100 -48 Level Chicago Center
Sun 09:18:30 PM 42.9656 -89.1017 315° West 275 316 9,000 -1,122 Descending Chicago Center
Sun 09:19:31 PM 42.9733 -89.1981 276° West 255 293 6,800 -2,293 Descending Chicago Center
Sun 09:20:33 PM 42.9764 -89.2928 273° West 250 288 4,300 -1,984 Descending Chicago Center
Sun 09:21:35 PM 43.0181 -89.3486 316° Northwest 233 268 2,700 -1,065 Descending Chicago Center
Sun 09:22:37 PM 43.0683 -89.3453 North 197 227 2,100 -677 Descending Chicago Center
Sun 09:23:39 PM 43.1106 -89.3447 North 172 198 1,300 -435 Descending Chicago Center
Sun 09:24:41 PM 43.1492 -89.3444 360° North 168 193 1,200 -97 Descending Chicago Center

Login

Don't have an account? Register now (free) for customized features, flight alerts, and more!